createdAt,value
2023-05-24T00:00:59.340Z,3.50
2023-05-24T00:02:03.031Z,2.00
2023-05-24T00:03:06.693Z,2.50
2023-05-24T00:04:10.331Z,2.50
2023-05-24T00:05:14.108Z,3.00
2023-05-24T00:06:17.609Z,3.25
2023-05-24T00:07:21.023Z,3.50
2023-05-24T00:08:24.473Z,4.50
2023-05-24T00:09:28.176Z,4.50
2023-05-24T00:10:31.779Z,4.00
2023-05-24T00:11:35.368Z,4.00
2023-05-24T00:12:38.740Z,4.00
2023-05-24T00:13:42.199Z,3.50
2023-05-24T00:14:45.818Z,4.00
2023-05-24T00:15:52.281Z,4.50
2023-05-24T00:16:55.992Z,4.00
2023-05-24T00:17:59.489Z,4.00
2023-05-24T00:19:02.956Z,5.25
2023-05-24T00:20:07.447Z,5.00
2023-05-24T00:21:13.996Z,4.50
2023-05-24T00:22:17.315Z,3.00
2023-05-24T00:23:20.351Z,3.25
2023-05-24T00:24:23.694Z,4.00
2023-05-24T00:25:26.772Z,3.75
2023-05-24T00:26:30.156Z,4.00
2023-05-24T00:27:33.524Z,3.50
2023-05-24T00:28:37.016Z,3.80
2023-05-24T00:29:40.198Z,4.25
2023-05-24T00:30:43.482Z,5.00
2023-05-24T00:31:47.080Z,5.25
2023-05-24T00:32:50.319Z,4.00
2023-05-24T00:33:53.950Z,4.50
2023-05-24T00:34:57.359Z,4.00
2023-05-24T00:36:00.683Z,3.50
2023-05-24T00:37:03.897Z,3.00
2023-05-24T00:38:07.190Z,2.80
2023-05-24T00:39:10.574Z,2.40
2023-05-24T00:40:13.857Z,3.50
2023-05-24T00:41:17.050Z,4.25
2023-05-24T00:42:20.436Z,3.75
2023-05-24T00:43:23.792Z,4.00
2023-05-24T00:44:27.097Z,4.00
2023-05-24T00:45:32.377Z,3.50
2023-05-24T00:46:35.129Z,4.00
2023-05-24T00:47:38.529Z,5.00
2023-05-24T00:48:41.959Z,4.00
2023-05-24T00:49:45.166Z,4.00
2023-05-24T00:50:48.326Z,3.50
2023-05-24T00:51:51.634Z,3.75
2023-05-24T00:52:54.915Z,3.50
2023-05-24T00:53:57.941Z,3.50
2023-05-24T00:55:00.960Z,3.50
2023-05-24T00:56:04.468Z,5.00
2023-05-24T00:57:07.752Z,4.75
2023-05-24T00:58:11.352Z,3.60
2023-05-24T00:59:14.974Z,3.50
2023-05-24T01:00:18.314Z,3.00
2023-05-24T01:01:21.821Z,4.00
2023-05-24T01:02:25.271Z,3.40
2023-05-24T01:03:28.706Z,4.00
2023-05-24T01:04:31.955Z,5.00
2023-05-24T01:05:35.551Z,4.50
2023-05-24T01:06:38.931Z,3.25
2023-05-24T01:07:42.420Z,3.00
2023-05-24T01:08:45.927Z,3.00
2023-05-24T01:09:49.316Z,4.00
2023-05-24T01:10:53.109Z,4.00
2023-05-24T01:11:57.914Z,4.00
2023-05-24T01:13:01.613Z,3.75
2023-05-24T01:14:05.067Z,3.50
2023-05-24T01:15:09.312Z,3.50
2023-05-24T01:16:13.048Z,4.00
2023-05-24T01:17:16.702Z,3.50
2023-05-24T01:18:20.387Z,3.00
2023-05-24T01:19:24.101Z,3.00
2023-05-24T01:20:28.104Z,4.00
2023-05-24T01:21:31.578Z,5.00
2023-05-24T01:22:35.394Z,4.50
2023-05-24T01:23:39.269Z,4.00
2023-05-24T01:24:42.753Z,4.00
2023-05-24T01:25:46.651Z,3.75
2023-05-24T01:26:50.366Z,4.00
2023-05-24T01:27:54.042Z,4.50
2023-05-24T01:28:57.531Z,5.50
2023-05-24T01:30:01.210Z,6.00
2023-05-24T01:31:05.057Z,4.50
2023-05-24T01:32:08.935Z,5.00
2023-05-24T01:33:12.405Z,4.00
2023-05-24T01:34:16.007Z,4.25
2023-05-24T01:35:19.609Z,4.50
2023-05-24T01:36:23.193Z,3.75
2023-05-24T01:37:26.785Z,3.00
2023-05-24T01:38:30.482Z,4.50
2023-05-24T01:39:33.956Z,5.75
2023-05-24T01:40:37.334Z,5.25
2023-05-24T01:41:40.834Z,4.50
2023-05-24T01:42:44.320Z,4.50
2023-05-24T01:43:47.915Z,4.00
2023-05-24T01:44:51.298Z,4.50
2023-05-24T01:45:54.789Z,4.50
2023-05-24T01:46:58.289Z,4.75
2023-05-24T01:48:02.123Z,5.00
2023-05-24T01:49:05.791Z,4.50
2023-05-24T01:50:09.360Z,3.25
2023-05-24T01:51:12.422Z,4.50
2023-05-24T01:52:15.856Z,4.75
2023-05-24T01:53:19.221Z,5.00
2023-05-24T01:54:22.804Z,6.00
2023-05-24T01:55:26.185Z,6.00
2023-05-24T01:56:29.760Z,5.50
2023-05-24T01:57:32.994Z,5.00
2023-05-24T01:58:36.251Z,4.75
2023-05-24T01:59:39.633Z,5.00
2023-05-24T02:00:43.117Z,5.50
2023-05-24T02:01:46.606Z,5.00
2023-05-24T02:02:50.008Z,3.75
2023-05-24T02:03:53.161Z,4.50
2023-05-24T02:04:56.383Z,4.50
2023-05-24T02:05:59.744Z,4.50
2023-05-24T02:07:03.078Z,5.00
2023-05-24T02:08:06.215Z,5.75
2023-05-24T02:09:09.596Z,4.50
2023-05-24T02:10:12.775Z,5.00
2023-05-24T02:11:16.247Z,3.75
2023-05-24T02:12:19.658Z,4.25
2023-05-24T02:13:23.349Z,5.00
2023-05-24T02:14:26.820Z,3.75
2023-05-24T02:15:30.436Z,4.50
2023-05-24T02:16:34.056Z,5.00
2023-05-24T02:17:37.679Z,5.00
2023-05-24T02:18:41.213Z,4.75
2023-05-24T02:19:44.775Z,4.75
2023-05-24T02:20:48.395Z,3.50
2023-05-24T02:21:51.992Z,3.25
2023-05-24T02:22:55.781Z,4.50
2023-05-24T02:23:59.374Z,5.00
2023-05-24T02:25:03.215Z,3.50
2023-05-24T02:26:06.788Z,4.00
2023-05-24T02:27:10.370Z,3.25
2023-05-24T02:28:14.255Z,3.75
2023-05-24T02:29:18.158Z,3.50
2023-05-24T02:30:21.741Z,3.50
2023-05-24T02:31:25.270Z,4.25
2023-05-24T02:32:29.161Z,4.50
2023-05-24T02:33:32.826Z,6.00
2023-05-24T02:34:36.289Z,7.00
2023-05-24T02:35:39.672Z,6.50
2023-05-24T02:36:43.103Z,6.50
2023-05-24T02:37:46.328Z,6.25
2023-05-24T02:38:49.583Z,6.00
2023-05-24T02:39:52.841Z,6.00
2023-05-24T02:40:57.437Z,6.00
2023-05-24T02:42:00.233Z,7.00
2023-05-24T02:43:03.496Z,6.60
2023-05-24T02:44:06.896Z,6.00
2023-05-24T02:45:10.082Z,5.25
2023-05-24T02:46:13.333Z,5.25
2023-05-24T02:47:16.460Z,4.00
2023-05-24T02:48:19.744Z,4.50
2023-05-24T02:49:23.003Z,6.75
2023-05-24T02:50:26.195Z,7.00
2023-05-24T02:51:29.583Z,7.25
2023-05-24T02:52:32.978Z,7.00
2023-05-24T02:53:36.559Z,6.25
2023-05-24T02:54:39.980Z,7.00
2023-05-24T02:55:43.250Z,6.50
2023-05-24T02:56:46.922Z,5.50
2023-05-24T02:57:50.511Z,6.00
2023-05-24T02:58:54.122Z,7.00
2023-05-24T02:59:57.584Z,7.50
2023-05-24T03:01:01.007Z,6.75
2023-05-24T03:02:04.263Z,5.75
2023-05-24T03:03:07.807Z,6.00
2023-05-24T03:04:11.400Z,6.00
2023-05-24T03:05:14.835Z,6.50
2023-05-24T03:06:18.010Z,5.75
2023-05-24T03:07:21.423Z,6.75
2023-05-24T03:08:24.782Z,7.00
2023-05-24T03:09:28.073Z,7.50
2023-05-24T03:10:31.255Z,7.50
2023-05-24T03:11:34.895Z,6.80
2023-05-24T03:12:38.126Z,6.50
2023-05-24T03:13:41.653Z,7.00
2023-05-24T03:14:45.200Z,7.00
2023-05-24T03:15:48.767Z,9.50
2023-05-24T03:16:52.476Z,8.50
2023-05-24T03:17:55.870Z,6.00
2023-05-24T03:18:59.270Z,7.00
2023-05-24T03:20:03.543Z,8.00
2023-05-24T03:21:06.972Z,8.75
2023-05-24T03:22:10.861Z,8.00
2023-05-24T03:23:14.452Z,9.00
2023-05-24T03:24:17.946Z,8.00
2023-05-24T03:25:21.317Z,6.25
2023-05-24T03:26:24.915Z,7.00
2023-05-24T03:27:28.198Z,8.25
2023-05-24T03:28:31.479Z,7.25
2023-05-24T03:29:34.975Z,5.75
2023-05-24T03:30:38.360Z,5.50
2023-05-24T03:31:41.719Z,5.00
2023-05-24T03:32:45.196Z,6.00
2023-05-24T03:33:48.516Z,7.00
2023-05-24T03:34:51.804Z,5.40
2023-05-24T03:35:55.298Z,4.80
2023-05-24T03:36:58.676Z,6.25
2023-05-24T03:38:02.072Z,8.33
2023-05-24T03:39:05.261Z,7.50
2023-05-24T03:40:08.403Z,7.50
2023-05-24T03:41:12.121Z,7.50
2023-05-24T03:42:15.313Z,7.00
2023-05-24T03:43:18.711Z,6.50
2023-05-24T03:44:22.410Z,6.75
2023-05-24T03:45:37.801Z,8.00
2023-05-24T03:46:30.452Z,7.75
2023-05-24T03:47:34.004Z,7.00
2023-05-24T03:48:37.568Z,7.00
2023-05-24T03:49:41.592Z,7.00
2023-05-24T03:50:45.765Z,7.00
2023-05-24T03:51:49.677Z,8.00
2023-05-24T03:52:53.074Z,8.00
2023-05-24T03:53:56.955Z,6.00
2023-05-24T03:55:00.242Z,5.75
2023-05-24T03:56:03.712Z,7.00
2023-05-24T03:57:06.877Z,5.50
2023-05-24T03:58:10.295Z,2.00
2023-05-24T03:59:13.896Z,3.00
2023-05-24T04:00:17.582Z,5.00
2023-05-24T04:01:32.689Z,5.75
2023-05-24T04:02:25.801Z,5.75
2023-05-24T04:03:29.435Z,7.00
2023-05-24T04:04:32.975Z,5.25
2023-05-24T04:05:36.253Z,5.00
2023-05-24T04:06:39.816Z,6.50
2023-05-24T04:07:43.344Z,6.50
2023-05-24T04:08:46.933Z,6.75
2023-05-24T04:09:50.326Z,6.75
2023-05-24T04:10:53.598Z,4.00
2023-05-24T04:11:57.294Z,3.00
2023-05-24T04:13:01.725Z,3.00
2023-05-24T04:14:05.419Z,3.50
2023-05-24T04:15:09.013Z,3.75
2023-05-24T04:16:12.379Z,4.00
2023-05-24T04:17:15.722Z,3.00
2023-05-24T04:18:19.029Z,4.00
2023-05-24T04:19:22.554Z,4.00
2023-05-24T04:20:26.209Z,3.50
2023-05-24T04:21:29.821Z,3.75
2023-05-24T04:22:33.835Z,3.00
2023-05-24T04:23:37.130Z,4.50
2023-05-24T04:24:40.676Z,4.50
2023-05-24T04:25:44.204Z,4.50
2023-05-24T04:26:47.788Z,4.50
2023-05-24T04:27:51.093Z,4.25
2023-05-24T04:28:54.572Z,3.50
2023-05-24T04:29:58.177Z,2.25
2023-05-24T04:31:01.786Z,4.00
2023-05-24T04:32:05.548Z,3.00
2023-05-24T04:33:09.085Z,3.50
2023-05-24T04:34:12.312Z,3.50
2023-05-24T04:35:15.694Z,3.00
2023-05-24T04:36:19.196Z,2.50
2023-05-24T04:37:22.878Z,3.25
2023-05-24T04:38:26.277Z,4.00
2023-05-24T04:39:29.652Z,3.00
2023-05-24T04:40:33.273Z,2.75
2023-05-24T04:41:36.503Z,2.50
2023-05-24T04:42:39.988Z,3.25
2023-05-24T04:43:43.101Z,5.00
2023-05-24T04:44:46.388Z,3.25
2023-05-24T04:45:50.283Z,2.50
2023-05-24T04:46:53.938Z,3.50
2023-05-24T04:47:57.898Z,3.50
2023-05-24T04:49:01.361Z,3.00
2023-05-24T04:50:04.957Z,4.50
2023-05-24T04:51:08.574Z,4.50
2023-05-24T04:52:12.141Z,4.00
2023-05-24T04:53:15.562Z,3.50
2023-05-24T04:54:19.636Z,4.00
2023-05-24T04:55:23.116Z,3.00
2023-05-24T04:56:26.602Z,4.00
2023-05-24T04:57:30.102Z,4.00
2023-05-24T04:58:33.489Z,4.75
2023-05-24T04:59:37.082Z,4.40
2023-05-24T05:00:40.649Z,3.75
2023-05-24T05:01:43.954Z,4.00
2023-05-24T05:02:47.174Z,4.25
2023-05-24T05:03:50.703Z,4.00
2023-05-24T05:04:53.993Z,3.75
2023-05-24T05:05:57.398Z,4.50
2023-05-24T05:07:00.672Z,3.75
2023-05-24T05:08:04.263Z,3.50
2023-05-24T05:09:07.452Z,3.25
2023-05-24T05:10:11.030Z,3.25
2023-05-24T05:11:14.320Z,3.50
2023-05-24T05:12:17.603Z,4.00
2023-05-24T05:13:20.886Z,3.00
2023-05-24T05:14:24.135Z,4.00
2023-05-24T05:15:27.217Z,5.50
2023-05-24T05:16:30.998Z,5.00
2023-05-24T05:17:34.295Z,5.00
2023-05-24T05:18:37.626Z,4.00
2023-05-24T05:19:41.109Z,3.20
2023-05-24T05:20:45.153Z,4.75
2023-05-24T05:21:48.733Z,4.00
2023-05-24T05:22:52.191Z,4.00
2023-05-24T05:23:55.652Z,4.50
2023-05-24T05:24:58.968Z,5.25
2023-05-24T05:26:02.349Z,4.25
2023-05-24T05:27:05.649Z,4.00
2023-05-24T05:28:08.818Z,3.75
2023-05-24T05:29:13.195Z,4.00
2023-05-24T05:30:16.483Z,4.00
2023-05-24T05:31:19.694Z,4.00
2023-05-24T05:32:23.274Z,4.00
2023-05-24T05:33:26.513Z,3.25
2023-05-24T05:34:29.962Z,4.25
2023-05-24T05:35:33.450Z,4.00
2023-05-24T05:36:36.849Z,4.00
2023-05-24T05:37:40.877Z,3.75
2023-05-24T05:38:44.196Z,4.00
2023-05-24T05:39:47.709Z,3.50
2023-05-24T05:40:51.000Z,4.00
2023-05-24T05:41:54.688Z,4.00
2023-05-24T05:42:58.273Z,4.50
2023-05-24T05:44:01.589Z,4.50
2023-05-24T05:45:04.637Z,3.75
2023-05-24T05:46:07.993Z,4.00
2023-05-24T05:47:11.181Z,3.50
2023-05-24T05:48:14.597Z,4.00
2023-05-24T05:49:17.775Z,5.00
2023-05-24T05:50:21.172Z,4.25
2023-05-24T05:51:24.445Z,4.50
2023-05-24T05:52:27.850Z,5.00
2023-05-24T05:53:31.089Z,4.00
2023-05-24T05:54:34.512Z,4.00
2023-05-24T05:55:38.224Z,4.25
2023-05-24T05:56:41.689Z,4.00
2023-05-24T05:57:45.058Z,3.50
2023-05-24T05:58:49.000Z,3.00
2023-05-24T05:59:53.088Z,4.00
2023-05-24T06:00:56.368Z,5.50
2023-05-24T06:02:05.374Z,4.50
2023-05-24T06:03:09.506Z,4.00
2023-05-24T06:04:13.073Z,5.00
2023-05-24T06:05:16.576Z,4.00
2023-05-24T06:06:20.584Z,3.25
2023-05-24T06:07:24.156Z,3.50
2023-05-24T06:08:27.852Z,5.00
2023-05-24T06:09:31.550Z,5.50
2023-05-24T06:10:34.826Z,4.00
2023-05-24T06:11:38.218Z,4.00
2023-05-24T06:12:41.513Z,4.75
2023-05-24T06:13:44.885Z,4.00
2023-05-24T06:14:48.892Z,3.00
2023-05-24T06:15:52.652Z,5.00
2023-05-24T06:17:00.376Z,4.50
2023-05-24T06:18:01.473Z,4.25
2023-05-24T06:19:06.459Z,4.50
2023-05-24T06:20:09.454Z,4.00
2023-05-24T06:21:25.586Z,4.50
2023-05-24T06:22:29.188Z,4.25
2023-05-24T06:23:32.771Z,4.50
2023-05-24T06:24:36.264Z,4.00
2023-05-24T06:25:39.864Z,5.00
2023-05-24T06:26:46.791Z,5.00
2023-05-24T06:27:50.613Z,5.25
2023-05-24T06:28:54.319Z,4.50
2023-05-24T06:29:57.957Z,5.25
2023-05-24T06:31:01.847Z,5.00
2023-05-24T06:32:05.496Z,3.50
2023-05-24T06:33:08.991Z,3.25
2023-05-24T06:34:12.693Z,4.00
2023-05-24T06:35:16.517Z,4.25
2023-05-24T06:36:23.673Z,4.75
2023-05-24T06:37:25.012Z,5.25
2023-05-24T06:38:29.316Z,4.50
2023-05-24T06:39:32.999Z,5.00
2023-05-24T06:40:36.798Z,4.25
2023-05-24T06:41:40.592Z,5.00
2023-05-24T06:42:44.304Z,4.50
2023-05-24T06:43:48.195Z,4.50
2023-05-24T06:44:51.791Z,4.75
2023-05-24T06:45:56.098Z,5.00
2023-05-24T06:47:00.229Z,4.75
2023-05-24T06:48:03.864Z,3.50
2023-05-24T06:49:07.654Z,5.50
2023-05-24T06:50:11.892Z,5.25
2023-05-24T06:51:15.673Z,5.00
2023-05-24T06:52:19.786Z,5.00
2023-05-24T06:53:23.996Z,5.00
2023-05-24T06:54:27.582Z,5.25
2023-05-24T06:55:31.607Z,5.00
2023-05-24T06:56:35.368Z,6.00
2023-05-24T06:57:39.586Z,5.50
2023-05-24T06:59:55.476Z,6.50
2023-05-24T07:01:01.416Z,5.25
2023-05-24T07:02:05.122Z,4.50
2023-05-24T07:03:18.004Z,5.00
2023-05-24T07:04:13.982Z,6.00
2023-05-24T07:05:17.738Z,6.00
2023-05-24T07:06:21.626Z,6.00
2023-05-24T07:07:25.531Z,5.25
2023-05-24T07:08:29.008Z,4.75
2023-05-24T07:09:33.114Z,5.50
2023-05-24T07:10:37.019Z,7.00
2023-05-24T07:11:40.755Z,6.00
2023-05-24T07:12:47.163Z,5.50
2023-05-24T07:13:50.868Z,5.50
2023-05-24T07:14:57.520Z,6.00
2023-05-24T07:16:01.729Z,5.50
2023-05-24T07:17:05.778Z,5.75
2023-05-24T07:18:09.256Z,5.50
2023-05-24T07:19:13.335Z,5.00
2023-05-24T07:20:16.685Z,5.50
2023-05-24T07:21:20.511Z,5.50
2023-05-24T07:22:24.095Z,7.00
2023-05-24T07:23:28.751Z,7.00
2023-05-24T07:24:32.412Z,7.00
2023-05-24T07:25:35.890Z,7.00
2023-05-24T07:26:40.015Z,5.50
2023-05-24T07:27:43.488Z,5.00
2023-05-24T07:28:47.085Z,6.00
2023-05-24T07:29:50.809Z,6.00
2023-05-24T07:30:54.981Z,6.50
2023-05-24T07:32:01.692Z,6.50
2023-05-24T07:33:05.461Z,7.00
2023-05-24T07:34:09.134Z,6.50
2023-05-24T07:35:13.052Z,5.50
2023-05-24T07:36:18.138Z,5.50
2023-05-24T07:37:22.075Z,6.75
2023-05-24T07:38:26.033Z,7.75
2023-05-24T07:39:33.239Z,7.00
2023-05-24T07:40:37.138Z,6.50
2023-05-24T07:41:43.712Z,6.00
2023-05-24T07:42:47.195Z,6.50
2023-05-24T07:43:51.390Z,8.00
2023-05-24T07:44:55.188Z,9.00
2023-05-24T07:45:59.404Z,7.50
2023-05-24T07:47:03.168Z,7.00
2023-05-24T07:48:09.305Z,7.00
2023-05-24T07:49:16.167Z,5.50
2023-05-24T07:50:17.851Z,6.00
2023-05-24T07:51:26.210Z,5.50
2023-05-24T07:52:26.993Z,7.50
2023-05-24T07:53:30.817Z,8.00
2023-05-24T07:54:34.578Z,7.50
2023-05-24T07:55:38.585Z,10.50
2023-05-24T07:56:41.786Z,9.75
2023-05-24T07:57:45.761Z,7.75
2023-05-24T07:58:49.757Z,8.00
2023-05-24T07:59:53.908Z,7.50
2023-05-24T08:00:58.041Z,7.00
2023-05-24T08:02:01.780Z,7.00
2023-05-24T08:03:05.697Z,7.00
2023-05-24T08:04:09.736Z,7.50
2023-05-24T08:05:13.082Z,7.50
2023-05-24T08:06:16.751Z,8.00
2023-05-24T08:07:20.310Z,7.50
2023-05-24T08:08:23.923Z,8.75
2023-05-24T08:09:27.317Z,7.75
2023-05-24T08:10:30.608Z,7.75
2023-05-24T08:11:34.500Z,7.75
2023-05-24T08:12:38.189Z,7.75
2023-05-24T08:13:41.878Z,7.50
2023-05-24T08:14:45.146Z,8.50
2023-05-24T08:15:48.209Z,9.00
2023-05-24T08:16:51.578Z,7.25
2023-05-24T08:17:55.443Z,7.00
2023-05-24T08:18:58.924Z,8.25
2023-05-24T08:20:02.561Z,8.00
2023-05-24T08:21:06.429Z,8.00
2023-05-24T08:22:10.212Z,8.50
2023-05-24T08:23:14.200Z,7.50
2023-05-24T08:24:17.591Z,7.50
2023-05-24T08:25:20.980Z,8.00
2023-05-24T08:26:24.730Z,9.00
2023-05-24T08:27:28.168Z,8.00
2023-05-24T08:28:32.015Z,9.00
2023-05-24T08:29:36.063Z,7.50
2023-05-24T08:30:39.776Z,6.75
2023-05-24T08:31:43.430Z,7.00
2023-05-24T08:32:47.731Z,6.50
2023-05-24T08:33:51.554Z,8.00
2023-05-24T08:35:03.498Z,8.00
2023-05-24T08:35:59.756Z,9.00
2023-05-24T08:37:03.773Z,9.00
2023-05-24T08:38:07.453Z,10.25
2023-05-24T08:39:10.976Z,10.50
2023-05-24T08:40:15.375Z,9.50
2023-05-24T08:41:19.661Z,7.00
2023-05-24T08:42:23.254Z,7.75
2023-05-24T08:43:26.855Z,8.00
2023-05-24T08:44:30.334Z,8.00
2023-05-24T08:45:34.135Z,8.00
2023-05-24T08:46:37.831Z,9.50
2023-05-24T08:47:41.204Z,9.00
2023-05-24T08:48:44.865Z,9.00
2023-05-24T08:49:48.915Z,10.50
2023-05-24T08:50:52.153Z,9.50
2023-05-24T08:51:55.904Z,8.50
2023-05-24T08:52:59.375Z,9.50
2023-05-24T08:54:02.762Z,11.00
2023-05-24T08:55:06.352Z,9.00
2023-05-24T08:56:09.536Z,9.00
2023-05-24T08:57:13.342Z,9.25
2023-05-24T08:58:16.616Z,9.00
2023-05-24T08:59:20.720Z,8.00
2023-05-24T09:00:23.903Z,9.00
2023-05-24T09:01:29.741Z,9.00
2023-05-24T09:02:31.825Z,10.50
2023-05-24T09:03:36.194Z,11.50
2023-05-24T09:04:39.707Z,10.50
2023-05-24T09:05:43.269Z,10.25
2023-05-24T09:06:46.823Z,12.00
2023-05-24T09:07:50.711Z,11.00
2023-05-24T09:08:54.390Z,11.00
2023-05-24T09:09:57.991Z,11.00
2023-05-24T09:11:01.980Z,11.00
2023-05-24T09:12:06.015Z,10.50
2023-05-24T09:13:09.595Z,9.50
2023-05-24T09:14:12.948Z,9.00
2023-05-24T09:15:16.238Z,10.00
2023-05-24T09:16:19.771Z,11.50
2023-05-24T09:17:23.213Z,9.75
2023-05-24T09:18:26.797Z,8.75
2023-05-24T09:19:30.906Z,12.00
2023-05-24T09:20:34.479Z,11.50
2023-05-24T09:21:37.495Z,12.50
2023-05-24T09:22:41.776Z,11.75
2023-05-24T09:23:45.881Z,12.00
2023-05-24T09:24:49.676Z,12.50
2023-05-24T09:25:53.069Z,13.00
2023-05-24T09:26:56.560Z,14.00
2023-05-24T09:28:00.801Z,19.00
2023-05-24T09:29:04.247Z,20.25
2023-05-24T09:30:08.052Z,20.25
2023-05-24T09:31:11.659Z,19.25
2023-05-24T09:32:15.227Z,18.50
2023-05-24T09:33:18.928Z,18.50
2023-05-24T09:34:22.628Z,20.00
2023-05-24T09:35:25.996Z,18.75
2023-05-24T09:36:29.420Z,15.75
2023-05-24T09:37:33.182Z,15.00
2023-05-24T09:38:37.194Z,14.25
2023-05-24T09:39:40.891Z,13.50
2023-05-24T09:40:44.529Z,12.50
2023-05-24T09:41:48.069Z,13.25
2023-05-24T09:42:51.658Z,14.00
2023-05-24T09:43:55.143Z,12.50
2023-05-24T09:44:58.526Z,13.00
2023-05-24T09:46:02.143Z,11.80
2023-05-24T09:47:05.553Z,11.50
2023-05-24T09:48:09.175Z,14.25
2023-05-24T09:49:12.489Z,15.00
2023-05-24T09:50:16.349Z,13.00
2023-05-24T09:51:20.518Z,12.00
2023-05-24T09:52:23.971Z,12.00
2023-05-24T09:53:27.375Z,12.75
2023-05-24T09:54:31.062Z,11.25
2023-05-24T09:55:34.952Z,12.50
2023-05-24T09:56:38.647Z,14.00
2023-05-24T09:57:41.937Z,11.50
2023-05-24T09:58:45.537Z,11.00
2023-05-24T09:59:48.813Z,12.00
2023-05-24T10:00:52.205Z,13.50
2023-05-24T10:01:55.890Z,12.75
2023-05-24T10:02:59.529Z,12.50
2023-05-24T10:04:03.829Z,13.50
2023-05-24T10:05:07.483Z,12.75
2023-05-24T10:06:10.908Z,11.00
2023-05-24T10:07:14.376Z,11.50
2023-05-24T10:08:17.765Z,13.00
2023-05-24T10:09:21.354Z,14.50
2023-05-24T10:10:24.801Z,13.25
2023-05-24T10:11:28.131Z,12.00
2023-05-24T10:12:32.012Z,11.75
2023-05-24T10:13:35.645Z,12.50
2023-05-24T10:14:39.202Z,13.25
2023-05-24T10:15:42.594Z,13.50
2023-05-24T10:16:46.021Z,12.00
2023-05-24T10:17:49.585Z,11.00
2023-05-24T10:18:52.844Z,11.50
2023-05-24T10:19:56.465Z,12.25
2023-05-24T10:21:00.309Z,13.50
2023-05-24T10:22:04.376Z,14.25
2023-05-24T10:23:07.828Z,14.00
2023-05-24T10:24:11.524Z,13.00
2023-05-24T10:25:14.694Z,12.25
2023-05-24T10:26:18.348Z,14.00
2023-05-24T10:27:22.286Z,15.00
2023-05-24T10:28:26.906Z,14.00
2023-05-24T10:29:30.608Z,14.50
2023-05-24T10:30:34.458Z,15.25
2023-05-24T10:31:39.564Z,15.50
2023-05-24T10:32:43.455Z,14.50
2023-05-24T10:33:46.808Z,15.00
2023-05-24T10:34:50.808Z,15.50
2023-05-24T10:35:54.403Z,16.75
2023-05-24T10:36:58.304Z,19.50
2023-05-24T10:38:01.498Z,16.25
2023-05-24T10:39:04.596Z,14.50
2023-05-24T10:40:07.966Z,14.50
2023-05-24T10:41:11.546Z,19.00
2023-05-24T10:42:15.342Z,20.00
2023-05-24T10:43:18.948Z,16.50
2023-05-24T10:44:22.719Z,22.50
2023-05-24T10:45:26.218Z,21.50
2023-05-24T10:46:29.702Z,19.00
2023-05-24T10:47:33.124Z,20.75
2023-05-24T10:48:36.351Z,22.25
2023-05-24T10:49:39.787Z,18.00
2023-05-24T10:50:43.476Z,18.25
2023-05-24T10:51:47.558Z,16.75
2023-05-24T10:52:51.368Z,16.50
2023-05-24T10:53:55.253Z,17.75
2023-05-24T10:55:03.158Z,18.75
2023-05-24T10:56:03.355Z,21.00
2023-05-24T10:57:07.169Z,24.00
2023-05-24T10:58:10.854Z,22.00
2023-05-24T10:59:14.647Z,22.00
2023-05-24T11:00:30.738Z,23.50
2023-05-24T11:01:33.911Z,24.00
2023-05-24T11:02:37.471Z,23.75
2023-05-24T11:03:40.889Z,20.50
2023-05-24T11:04:44.503Z,20.75
2023-05-24T11:05:48.769Z,22.00
2023-05-24T11:06:52.335Z,20.50
2023-05-24T11:07:55.968Z,21.25
2023-05-24T11:09:00.075Z,21.50
2023-05-24T11:10:06.563Z,22.50
2023-05-24T11:11:23.275Z,22.75
2023-05-24T11:12:13.637Z,22.25
2023-05-24T11:13:17.652Z,21.50
2023-05-24T11:14:21.211Z,22.00
2023-05-24T11:15:24.536Z,20.50
2023-05-24T11:16:28.142Z,20.50
2023-05-24T11:17:35.446Z,22.00
2023-05-24T11:18:38.990Z,22.50
2023-05-24T11:19:42.056Z,21.50
2023-05-24T11:20:46.213Z,21.00
2023-05-24T11:21:49.715Z,20.00
2023-05-24T11:22:53.109Z,21.00
2023-05-24T11:23:59.610Z,23.25
2023-05-24T11:25:03.077Z,33.00
2023-05-24T11:26:14.897Z,35.50
2023-05-24T11:28:39.078Z,23.25
2023-05-24T11:29:42.724Z,25.50
2023-05-24T11:30:46.126Z,23.25
2023-05-24T11:31:49.718Z,21.00
2023-05-24T11:32:53.177Z,20.00
2023-05-24T11:33:56.880Z,21.00
2023-05-24T11:35:00.739Z,21.50
2023-05-24T11:36:04.588Z,20.00
2023-05-24T11:37:08.405Z,21.00
2023-05-24T11:38:15.483Z,21.50
2023-05-24T11:39:18.930Z,20.25
2023-05-24T11:40:22.828Z,22.75
2023-05-24T11:41:26.328Z,20.50
2023-05-24T11:42:29.908Z,20.50
2023-05-24T11:43:33.752Z,20.75
2023-05-24T11:44:37.315Z,21.40
2023-05-24T11:45:40.816Z,18.50
2023-05-24T11:46:44.423Z,17.00
2023-05-24T11:47:48.112Z,19.50
2023-05-24T11:48:51.769Z,19.25
2023-05-24T11:49:55.666Z,17.75
2023-05-24T11:51:02.103Z,17.50
2023-05-24T11:52:06.125Z,16.00
2023-05-24T11:53:11.048Z,17.50
2023-05-24T11:54:15.157Z,18.00
2023-05-24T11:55:18.724Z,16.00
2023-05-24T11:56:22.036Z,14.00
2023-05-24T11:57:25.512Z,17.25
2023-05-24T11:58:28.705Z,18.50
2023-05-24T11:59:32.096Z,16.00
2023-05-24T12:00:36.223Z,16.50
2023-05-24T12:01:39.780Z,17.75
2023-05-24T12:02:44.236Z,15.75
2023-05-24T12:03:48.022Z,14.50
2023-05-24T12:04:52.680Z,11.75
2023-05-24T12:05:56.504Z,12.75
2023-05-24T12:07:00.295Z,12.50
2023-05-24T12:08:03.606Z,13.00
2023-05-24T12:09:07.068Z,15.00
2023-05-24T12:10:10.687Z,16.00
2023-05-24T12:11:14.049Z,14.50
2023-05-24T12:12:17.441Z,14.50
2023-05-24T12:13:20.923Z,15.00
2023-05-24T12:14:24.326Z,12.75
2023-05-24T12:15:27.816Z,12.00
2023-05-24T12:16:31.271Z,12.00
2023-05-24T12:17:34.987Z,13.75
2023-05-24T12:18:41.508Z,13.75
2023-05-24T12:19:43.096Z,14.50
2023-05-24T12:20:46.715Z,13.00
2023-05-24T12:21:52.069Z,12.50
2023-05-24T12:22:55.210Z,12.00
2023-05-24T12:23:59.089Z,11.50
2023-05-24T12:25:02.371Z,12.00
2023-05-24T12:26:05.670Z,12.00
2023-05-24T12:27:09.125Z,13.00
2023-05-24T12:28:12.741Z,13.50
2023-05-24T12:29:16.331Z,12.00
2023-05-24T12:30:19.687Z,11.75
2023-05-24T12:31:23.439Z,13.00
2023-05-24T12:32:27.275Z,13.50
2023-05-24T12:33:30.694Z,12.50
2023-05-24T12:34:35.307Z,12.60
2023-05-24T12:35:38.899Z,11.50
2023-05-24T12:36:42.802Z,10.50
2023-05-24T12:37:46.089Z,10.50
2023-05-24T12:38:49.571Z,11.00
2023-05-24T12:39:54.635Z,10.50
2023-05-24T12:41:08.134Z,12.00
2023-05-24T12:42:02.708Z,14.50
2023-05-24T12:43:06.189Z,15.00
2023-05-24T12:44:09.693Z,12.50
2023-05-24T12:45:13.582Z,12.00
2023-05-24T12:46:17.094Z,11.50
2023-05-24T12:47:20.710Z,11.50
2023-05-24T12:48:24.595Z,13.50
2023-05-24T12:49:28.106Z,13.25
2023-05-24T12:50:31.769Z,13.50
2023-05-24T12:51:35.459Z,13.25
2023-05-24T12:52:39.027Z,12.00
2023-05-24T12:53:42.643Z,10.50
2023-05-24T12:54:46.425Z,11.50
2023-05-24T12:55:49.901Z,12.00
2023-05-24T12:56:55.634Z,11.50
2023-05-24T12:57:58.305Z,12.00
2023-05-24T12:59:05.701Z,14.75
2023-05-24T13:00:08.984Z,14.00
2023-05-24T13:01:12.560Z,14.00
2023-05-24T13:02:17.287Z,16.25
2023-05-24T13:03:20.980Z,17.25
2023-05-24T13:04:24.604Z,15.50
2023-05-24T13:05:28.143Z,13.50
2023-05-24T13:06:31.856Z,13.75
2023-05-24T13:07:35.255Z,14.00
2023-05-24T13:08:40.711Z,12.50
2023-05-24T13:09:43.250Z,14.25
2023-05-24T13:10:46.860Z,15.00
2023-05-24T13:11:50.562Z,12.00
2023-05-24T13:12:53.958Z,12.00
2023-05-24T13:13:57.202Z,11.00
2023-05-24T13:15:00.735Z,12.50
2023-05-24T13:16:04.080Z,12.50
2023-05-24T13:17:07.678Z,11.75
2023-05-24T13:18:12.384Z,13.75
2023-05-24T13:19:15.881Z,14.75
2023-05-24T13:20:19.413Z,13.50
2023-05-24T13:21:22.663Z,13.75
2023-05-24T13:22:26.049Z,15.50
2023-05-24T13:23:29.324Z,14.00
2023-05-24T13:24:33.020Z,13.75
2023-05-24T13:25:37.021Z,17.50
2023-05-24T13:26:40.404Z,15.50
2023-05-24T13:27:43.899Z,14.00
2023-05-24T13:29:15.156Z,13.00
2023-05-24T13:30:00.856Z,12.50
2023-05-24T13:30:56.640Z,12.50
2023-05-24T13:32:00.433Z,14.00
2023-05-24T13:33:03.772Z,14.00
2023-05-24T13:34:06.887Z,13.50
2023-05-24T13:35:10.064Z,13.75
2023-05-24T13:36:13.455Z,13.00
2023-05-24T13:37:16.751Z,17.50
2023-05-24T13:38:20.536Z,17.00
2023-05-24T13:39:23.732Z,15.00
2023-05-24T13:40:27.028Z,14.25
2023-05-24T13:41:30.322Z,14.20
2023-05-24T13:42:33.923Z,15.50
2023-05-24T13:43:37.111Z,14.50
2023-05-24T13:44:40.336Z,16.00
2023-05-24T13:45:43.419Z,15.50
2023-05-24T13:46:46.834Z,13.50
2023-05-24T13:47:56.271Z,12.50
2023-05-24T13:48:59.512Z,14.50
2023-05-24T13:50:02.693Z,14.50
2023-05-24T13:51:05.883Z,14.00
2023-05-24T13:52:09.464Z,16.50
2023-05-24T13:53:12.856Z,16.25
2023-05-24T13:54:16.035Z,14.50
2023-05-24T13:55:19.531Z,13.50
2023-05-24T13:56:22.814Z,14.25
2023-05-24T13:57:29.404Z,16.75
2023-05-24T13:58:30.188Z,17.50
2023-05-24T13:59:33.256Z,16.00
2023-05-24T14:00:36.466Z,15.25
2023-05-24T14:01:39.796Z,15.00